sensor_id;sensor_type;location;lat;lon;timestamp;pressure;altitude;pressure_sealevel;temperature
80422;BMP280;69763;50.182;9.144;2023-07-30T00:00:22;99458.03;;;16.16
80422;BMP280;69763;50.182;9.144;2023-07-30T00:02:49;99455.75;;;16.22
80422;BMP280;69763;50.182;9.144;2023-07-30T00:05:14;99453.16;;;16.24
80422;BMP280;69763;50.182;9.144;2023-07-30T00:07:40;99444.81;;;16.22
80422;BMP280;69763;50.182;9.144;2023-07-30T00:10:06;99445.06;;;16.17
80422;BMP280;69763;50.182;9.144;2023-07-30T00:12:32;99445.34;;;16.11
80422;BMP280;69763;50.182;9.144;2023-07-30T00:14:57;99444.31;;;16.06
80422;BMP280;69763;50.182;9.144;2023-07-30T00:17:22;99450.34;;;16.05
80422;BMP280;69763;50.182;9.144;2023-07-30T00:19:49;99453.81;;;16.05
80422;BMP280;69763;50.182;9.144;2023-07-30T00:22:14;99458.56;;;16.05
80422;BMP280;69763;50.182;9.144;2023-07-30T00:24:40;99460.72;;;16.06
80422;BMP280;69763;50.182;9.144;2023-07-30T00:27:06;99453.81;;;16.05
80422;BMP280;69763;50.182;9.144;2023-07-30T00:29:31;99449.31;;;16.00
80422;BMP280;69763;50.182;9.144;2023-07-30T00:31:57;99445.97;;;15.92
80422;BMP280;69763;50.182;9.144;2023-07-30T00:34:22;99446.06;;;15.85
80422;BMP280;69763;50.182;9.144;2023-07-30T00:36:49;99453.06;;;15.78
80422;BMP280;69763;50.182;9.144;2023-07-30T00:39:14;99454.03;;;15.73
80422;BMP280;69763;50.182;9.144;2023-07-30T00:41:39;99450.56;;;15.73
80422;BMP280;69763;50.182;9.144;2023-07-30T00:44:05;99453.84;;;15.71
80422;BMP280;69763;50.182;9.144;2023-07-30T00:46:30;99451.53;;;15.68
80422;BMP280;69763;50.182;9.144;2023-07-30T00:48:56;99461.59;;;15.65
80422;BMP280;69763;50.182;9.144;2023-07-30T00:51:21;99465.19;;;15.68
80422;BMP280;69763;50.182;9.144;2023-07-30T00:53:49;99456.03;;;15.73
80422;BMP280;69763;50.182;9.144;2023-07-30T00:56:14;99459.06;;;15.77
80422;BMP280;69763;50.182;9.144;2023-07-30T00:58:40;99461.25;;;15.78
80422;BMP280;69763;50.182;9.144;2023-07-30T01:01:05;99459.81;;;15.77
80422;BMP280;69763;50.182;9.144;2023-07-30T01:03:32;99466.09;;;15.70
80422;BMP280;69763;50.182;9.144;2023-07-30T01:05:57;99467.47;;;15.61
80422;BMP280;69763;50.182;9.144;2023-07-30T01:08:23;99465.16;;;15.58
80422;BMP280;69763;50.182;9.144;2023-07-30T01:10:49;99467.31;;;15.59
80422;BMP280;69763;50.182;9.144;2023-07-30T01:13:15;99476.69;;;15.66
80422;BMP280;69763;50.182;9.144;2023-07-30T01:15:42;99493.41;;;15.70
80422;BMP280;69763;50.182;9.144;2023-07-30T01:18:07;99486.25;;;15.75
80422;BMP280;69763;50.182;9.144;2023-07-30T01:20:33;99487.13;;;15.77
80422;BMP280;69763;50.182;9.144;2023-07-30T01:23:00;99487.13;;;15.77
80422;BMP280;69763;50.182;9.144;2023-07-30T01:25:28;99494.47;;;15.75
80422;BMP280;69763;50.182;9.144;2023-07-30T01:27:55;99491.97;;;15.69
80422;BMP280;69763;50.182;9.144;2023-07-30T01:30:26;99499.25;;;15.67
80422;BMP280;69763;50.182;9.144;2023-07-30T01:32:52;99501.75;;;15.72
80422;BMP280;69763;50.182;9.144;2023-07-30T01:35:18;99497.34;;;15.77
80422;BMP280;69763;50.182;9.144;2023-07-30T01:37:45;99505.94;;;15.73
80422;BMP280;69763;50.182;9.144;2023-07-30T01:40:13;99509.81;;;15.70
80422;BMP280;69763;50.182;9.144;2023-07-30T01:42:38;99506.19;;;15.68
80422;BMP280;69763;50.182;9.144;2023-07-30T01:45:05;99510.91;;;15.67
80422;BMP280;69763;50.182;9.144;2023-07-30T01:47:30;99509.91;;;15.62
80422;BMP280;69763;50.182;9.144;2023-07-30T01:49:56;99514.16;;;15.56
80422;BMP280;69763;50.182;9.144;2023-07-30T01:52:21;99518.41;;;15.49
80422;BMP280;69763;50.182;9.144;2023-07-30T01:54:47;99518.31;;;15.40
80422;BMP280;69763;50.182;9.144;2023-07-30T01:57:13;99513.09;;;15.34
80422;BMP280;69763;50.182;9.144;2023-07-30T01:59:39;99518.72;;;15.36
80422;BMP280;69763;50.182;9.144;2023-07-30T02:02:04;99516.13;;;15.38
80422;BMP280;69763;50.182;9.144;2023-07-30T02:04:30;99517.59;;;15.39
80422;BMP280;69763;50.182;9.144;2023-07-30T02:06:55;99517.59;;;15.39
80422;BMP280;69763;50.182;9.144;2023-07-30T02:09:21;99523.94;;;15.42
80422;BMP280;69763;50.182;9.144;2023-07-30T02:11:46;99524.84;;;15.44
80422;BMP280;69763;50.182;9.144;2023-07-30T02:14:13;99527.16;;;15.48
80422;BMP280;69763;50.182;9.144;2023-07-30T02:16:38;99523.31;;;15.51
80422;BMP280;69763;50.182;9.144;2023-07-30T02:19:04;99532.56;;;15.55
80422;BMP280;69763;50.182;9.144;2023-07-30T02:21:29;99532.72;;;15.57
80422;BMP280;69763;50.182;9.144;2023-07-30T02:23:54;99537.63;;;15.59
80422;BMP280;69763;50.182;9.144;2023-07-30T02:26:20;99536.16;;;15.58
80422;BMP280;69763;50.182;9.144;2023-07-30T02:28:45;99538.34;;;15.59
80422;BMP280;69763;50.182;9.144;2023-07-30T02:31:12;99536.16;;;15.58
80422;BMP280;69763;50.182;9.144;2023-07-30T02:33:37;99538.56;;;15.54
80422;BMP280;69763;50.182;9.144;2023-07-30T02:36:03;99542.25;;;15.49
80422;BMP280;69763;50.182;9.144;2023-07-30T02:38:29;99530.44;;;15.46
80422;BMP280;69763;50.182;9.144;2023-07-30T02:40:54;99538.09;;;15.48
80422;BMP280;69763;50.182;9.144;2023-07-30T02:43:19;99544.03;;;15.54
80422;BMP280;69763;50.182;9.144;2023-07-30T02:45:47;99543.50;;;15.55
80422;BMP280;69763;50.182;9.144;2023-07-30T02:48:13;99547.66;;;15.56
80422;BMP280;69763;50.182;9.144;2023-07-30T02:50:39;99558.56;;;15.56
80422;BMP280;69763;50.182;9.144;2023-07-30T02:53:04;99556.75;;;15.59
80422;BMP280;69763;50.182;9.144;2023-07-30T02:55:29;99567.66;;;15.59
80422;BMP280;69763;50.182;9.144;2023-07-30T02:57:55;99572.41;;;15.58
80422;BMP280;69763;50.182;9.144;2023-07-30T03:00:20;99570.94;;;15.57
80422;BMP280;69763;50.182;9.144;2023-07-30T03:02:46;99562.03;;;15.57
80422;BMP280;69763;50.182;9.144;2023-07-30T03:05:12;99572.97;;;15.57
80422;BMP280;69763;50.182;9.144;2023-07-30T03:07:38;99567.16;;;15.53
80422;BMP280;69763;50.182;9.144;2023-07-30T03:10:03;99567.34;;;15.55
80422;BMP280;69763;50.182;9.144;2023-07-30T03:12:29;99573.53;;;15.55
80422;BMP280;69763;50.182;9.144;2023-07-30T03:14:54;99584.28;;;15.53
80422;BMP280;69763;50.182;9.144;2023-07-30T03:17:20;99584.84;;;15.52
80422;BMP280;69763;50.182;9.144;2023-07-30T03:19:46;99592.31;;;15.51
80422;BMP280;69763;50.182;9.144;2023-07-30T03:22:13;99608.00;;;15.51
80422;BMP280;69763;50.182;9.144;2023-07-30T03:24:38;99604.69;;;15.52
80422;BMP280;69763;50.182;9.144;2023-07-30T03:27:04;99603.59;;;15.55
80422;BMP280;69763;50.182;9.144;2023-07-30T03:29:30;99602.47;;;15.58
80422;BMP280;69763;50.182;9.144;2023-07-30T03:31:55;99600.63;;;15.61
80422;BMP280;69763;50.182;9.144;2023-07-30T03:34:20;99604.94;;;15.64
80422;BMP280;69763;50.182;9.144;2023-07-30T03:36:46;99605.81;;;15.67
80422;BMP280;69763;50.182;9.144;2023-07-30T03:39:13;99597.78;;;15.69
80422;BMP280;69763;50.182;9.144;2023-07-30T03:41:38;99598.50;;;15.69
80422;BMP280;69763;50.182;9.144;2023-07-30T03:44:04;99600.53;;;15.69
80422;BMP280;69763;50.182;9.144;2023-07-30T03:46:29;99595.06;;;15.69
80422;BMP280;69763;50.182;9.144;2023-07-30T03:48:54;99595.59;;;15.67
80422;BMP280;69763;50.182;9.144;2023-07-30T03:51:20;99591.41;;;15.66
80422;BMP280;69763;50.182;9.144;2023-07-30T03:53:45;99588.53;;;15.64
80422;BMP280;69763;50.182;9.144;2023-07-30T03:56:12;99581.34;;;15.59
80422;BMP280;69763;50.182;9.144;2023-07-30T03:58:37;99587.56;;;15.52
80422;BMP280;69763;50.182;9.144;2023-07-30T04:01:03;99591.66;;;15.43
80422;BMP280;69763;50.182;9.144;2023-07-30T04:03:28;99602.88;;;15.30
80422;BMP280;69763;50.182;9.144;2023-07-30T04:05:53;99595.09;;;15.19
80422;BMP280;69763;50.182;9.144;2023-07-30T04:08:19;99595.75;;;15.10
80422;BMP280;69763;50.182;9.144;2023-07-30T04:10:44;99599.25;;;15.03
80422;BMP280;69763;50.182;9.144;2023-07-30T04:13:11;99592.91;;;15.00
80422;BMP280;69763;50.182;9.144;2023-07-30T04:15:36;99588.72;;;14.99
80422;BMP280;69763;50.182;9.144;2023-07-30T04:18:01;99585.25;;;14.99
80422;BMP280;69763;50.182;9.144;2023-07-30T04:20:27;99583.81;;;14.98
80422;BMP280;69763;50.182;9.144;2023-07-30T04:22:52;99583.88;;;14.90
80422;BMP280;69763;50.182;9.144;2023-07-30T04:25:17;99584.22;;;14.87
80422;BMP280;69763;50.182;9.144;2023-07-30T04:27:43;99588.25;;;14.86
80422;BMP280;69763;50.182;9.144;2023-07-30T04:30:10;99590.19;;;14.93
80422;BMP280;69763;50.182;9.144;2023-07-30T04:32:36;99603.97;;;15.02
80422;BMP280;69763;50.182;9.144;2023-07-30T04:35:01;99608.84;;;15.11
80422;BMP280;69763;50.182;9.144;2023-07-30T04:37:27;99614.16;;;15.27
80422;BMP280;69763;50.182;9.144;2023-07-30T04:39:52;99615.47;;;15.50
80422;BMP280;69763;50.182;9.144;2023-07-30T04:42:18;99612.31;;;15.71
80422;BMP280;69763;50.182;9.144;2023-07-30T04:44:44;99610.91;;;15.87
80422;BMP280;69763;50.182;9.144;2023-07-30T04:47:10;99610.03;;;16.02
80422;BMP280;69763;50.182;9.144;2023-07-30T04:49:36;99608.56;;;16.18
80422;BMP280;69763;50.182;9.144;2023-07-30T04:52:01;99603.25;;;16.37
80422;BMP280;69763;50.182;9.144;2023-07-30T04:54:27;99597.75;;;16.54
80422;BMP280;69763;50.182;9.144;2023-07-30T04:56:52;99610.84;;;16.56
80422;BMP280;69763;50.182;9.144;2023-07-30T04:59:17;99622.44;;;16.64
80422;BMP280;69763;50.182;9.144;2023-07-30T05:01:43;99617.91;;;16.86
80422;BMP280;69763;50.182;9.144;2023-07-30T05:04:09;99620.94;;;17.17
80422;BMP280;69763;50.182;9.144;2023-07-30T05:06:35;99617.66;;;17.37
80422;BMP280;69763;50.182;9.144;2023-07-30T05:09:00;99625.50;;;17.51
80422;BMP280;69763;50.182;9.144;2023-07-30T05:11:25;99621.03;;;17.65
80422;BMP280;69763;50.182;9.144;2023-07-30T05:13:51;99630.28;;;17.69
80422;BMP280;69763;50.182;9.144;2023-07-30T05:16:16;99630.56;;;17.83
80422;BMP280;69763;50.182;9.144;2023-07-30T05:18:42;99622.78;;;17.89
80422;BMP280;69763;50.182;9.144;2023-07-30T05:21:08;99621.50;;;17.90
80422;BMP280;69763;50.182;9.144;2023-07-30T05:23:34;99617.72;;;17.95
80422;BMP280;69763;50.182;9.144;2023-07-30T05:25:59;99615.72;;;18.15
80422;BMP280;69763;50.182;9.144;2023-07-30T05:28:25;99612.63;;;18.39
80422;BMP280;69763;50.182;9.144;2023-07-30T05:30:51;99611.00;;;18.56
80422;BMP280;69763;50.182;9.144;2023-07-30T05:33:16;99621.63;;;18.71
80422;BMP280;69763;50.182;9.144;2023-07-30T05:35:41;99619.38;;;18.88
80422;BMP280;69763;50.182;9.144;2023-07-30T05:38:08;99621.09;;;19.03
80422;BMP280;69763;50.182;9.144;2023-07-30T05:40:34;99613.47;;;19.23
80422;BMP280;69763;50.182;9.144;2023-07-30T05:43:00;99613.50;;;19.34
80422;BMP280;69763;50.182;9.144;2023-07-30T05:45:26;99609.91;;;19.32
80422;BMP280;69763;50.182;9.144;2023-07-30T05:47:51;99611.28;;;19.21
80422;BMP280;69763;50.182;9.144;2023-07-30T05:50:16;99620.34;;;19.03
80422;BMP280;69763;50.182;9.144;2023-07-30T05:52:42;99614.63;;;18.89
80422;BMP280;69763;50.182;9.144;2023-07-30T05:55:09;99604.38;;;18.89
80422;BMP280;69763;50.182;9.144;2023-07-30T05:57:34;99611.44;;;18.92
80422;BMP280;69763;50.182;9.144;2023-07-30T06:00:00;99617.34;;;18.99
80422;BMP280;69763;50.182;9.144;2023-07-30T06:02:25;99609.00;;;19.18
80422;BMP280;69763;50.182;9.144;2023-07-30T06:04:50;99610.19;;;19.57
80422;BMP280;69763;50.182;9.144;2023-07-30T06:07:16;99609.19;;;20.07
80422;BMP280;69763;50.182;9.144;2023-07-30T06:09:41;99608.56;;;20.64
80422;BMP280;69763;50.182;9.144;2023-07-30T06:12:08;99604.06;;;21.17
80422;BMP280;69763;50.182;9.144;2023-07-30T06:14:33;99605.94;;;21.88
80422;BMP280;69763;50.182;9.144;2023-07-30T06:16:59;99608.22;;;22.58
80422;BMP280;69763;50.182;9.144;2023-07-30T06:19:24;99611.88;;;23.17
80422;BMP280;69763;50.182;9.144;2023-07-30T06:21:49;99611.09;;;24.04
80422;BMP280;69763;50.182;9.144;2023-07-30T06:24:15;99604.19;;;25.74
80422;BMP280;69763;50.182;9.144;2023-07-30T06:26:40;99598.72;;;27.91
80422;BMP280;69763;50.182;9.144;2023-07-30T06:29:07;99594.50;;;30.46
80422;BMP280;69763;50.182;9.144;2023-07-30T06:31:32;99596.78;;;32.39
80422;BMP280;69763;50.182;9.144;2023-07-30T06:33:57;99598.00;;;33.37
80422;BMP280;69763;50.182;9.144;2023-07-30T06:36:23;99596.72;;;34.02
80422;BMP280;69763;50.182;9.144;2023-07-30T06:38:48;99600.19;;;34.61
80422;BMP280;69763;50.182;9.144;2023-07-30T06:41:13;99592.44;;;34.59
80422;BMP280;69763;50.182;9.144;2023-07-30T06:43:39;99602.31;;;34.50
80422;BMP280;69763;50.182;9.144;2023-07-30T06:46:06;99603.38;;;35.38
80422;BMP280;69763;50.182;9.144;2023-07-30T06:48:31;99602.78;;;35.21
80422;BMP280;69763;50.182;9.144;2023-07-30T06:50:56;99607.16;;;34.78
80422;BMP280;69763;50.182;9.144;2023-07-30T06:53:22;99602.31;;;34.44
80422;BMP280;69763;50.182;9.144;2023-07-30T06:55:47;99612.16;;;33.63
80422;BMP280;69763;50.182;9.144;2023-07-30T06:58:12;99624.88;;;31.69
80422;BMP280;69763;50.182;9.144;2023-07-30T07:00:38;99624.09;;;29.48
80422;BMP280;69763;50.182;9.144;2023-07-30T07:03:04;99631.19;;;27.82
80422;BMP280;69763;50.182;9.144;2023-07-30T07:05:30;99634.69;;;26.51
80422;BMP280;69763;50.182;9.144;2023-07-30T07:07:55;99624.28;;;25.55
80422;BMP280;69763;50.182;9.144;2023-07-30T07:10:21;99623.28;;;24.62
80422;BMP280;69763;50.182;9.144;2023-07-30T07:12:46;99636.72;;;23.89
80422;BMP280;69763;50.182;9.144;2023-07-30T07:15:11;99630.94;;;23.70
80422;BMP280;69763;50.182;9.144;2023-07-30T07:17:37;99634.97;;;23.67
80422;BMP280;69763;50.182;9.144;2023-07-30T07:20:05;99632.06;;;23.78
80422;BMP280;69763;50.182;9.144;2023-07-30T07:22:30;99631.34;;;23.93
80422;BMP280;69763;50.182;9.144;2023-07-30T07:24:56;99627.44;;;24.14
80422;BMP280;69763;50.182;9.144;2023-07-30T07:27:21;99629.56;;;24.47
80422;BMP280;69763;50.182;9.144;2023-07-30T07:29:46;99640.88;;;24.69
80422;BMP280;69763;50.182;9.144;2023-07-30T07:32:12;99631.22;;;24.85
80422;BMP280;69763;50.182;9.144;2023-07-30T07:34:37;99644.81;;;24.97
80422;BMP280;69763;50.182;9.144;2023-07-30T07:37:04;99642.28;;;25.19
80422;BMP280;69763;50.182;9.144;2023-07-30T07:39:30;99645.50;;;25.48
80422;BMP280;69763;50.182;9.144;2023-07-30T07:41:55;99645.50;;;25.48
80422;BMP280;69763;50.182;9.144;2023-07-30T07:44:20;99645.13;;;25.21
80422;BMP280;69763;50.182;9.144;2023-07-30T07:46:46;99647.47;;;25.10
80422;BMP280;69763;50.182;9.144;2023-07-30T07:49:11;99651.34;;;25.03
80422;BMP280;69763;50.182;9.144;2023-07-30T07:51:36;99655.09;;;25.10
80422;BMP280;69763;50.182;9.144;2023-07-30T07:54:03;99648.75;;;25.07
80422;BMP280;69763;50.182;9.144;2023-07-30T07:56:29;99651.75;;;25.13
80422;BMP280;69763;50.182;9.144;2023-07-30T07:58:55;99664.34;;;24.99
80422;BMP280;69763;50.182;9.144;2023-07-30T08:01:20;99661.91;;;24.74
80422;BMP280;69763;50.182;9.144;2023-07-30T08:03:45;99667.00;;;24.32
80422;BMP280;69763;50.182;9.144;2023-07-30T08:06:11;99666.69;;;23.79
80422;BMP280;69763;50.182;9.144;2023-07-30T08:08:36;99666.19;;;23.40
80422;BMP280;69763;50.182;9.144;2023-07-30T08:11:06;99674.22;;;23.07
80422;BMP280;69763;50.182;9.144;2023-07-30T08:13:31;99666.22;;;22.99
80422;BMP280;69763;50.182;9.144;2023-07-30T08:15:56;99669.00;;;22.99
80422;BMP280;69763;50.182;9.144;2023-07-30T08:18:22;99669.00;;;23.13
80422;BMP280;69763;50.182;9.144;2023-07-30T08:20:49;99665.00;;;23.16
80422;BMP280;69763;50.182;9.144;2023-07-30T08:23:14;99662.34;;;23.04
80422;BMP280;69763;50.182;9.144;2023-07-30T08:25:39;99666.69;;;22.80
80422;BMP280;69763;50.182;9.144;2023-07-30T08:28:06;99663.59;;;22.60
80422;BMP280;69763;50.182;9.144;2023-07-30T08:30:32;99672.44;;;22.31
80422;BMP280;69763;50.182;9.144;2023-07-30T08:32:57;99660.13;;;21.96
80422;BMP280;69763;50.182;9.144;2023-07-30T08:35:22;99634.25;;;21.64
80422;BMP280;69763;50.182;9.144;2023-07-30T08:37:48;99596.75;;;21.22
80422;BMP280;69763;50.182;9.144;2023-07-30T08:40:14;99625.28;;;21.03
80422;BMP280;69763;50.182;9.144;2023-07-30T08:42:39;99643.13;;;21.02
80422;BMP280;69763;50.182;9.144;2023-07-30T08:45:07;99636.28;;;21.15
80422;BMP280;69763;50.182;9.144;2023-07-30T08:47:33;99628.56;;;21.36
80422;BMP280;69763;50.182;9.144;2023-07-30T08:49:58;99628.38;;;21.58
80422;BMP280;69763;50.182;9.144;2023-07-30T08:52:25;99625.47;;;21.92
80422;BMP280;69763;50.182;9.144;2023-07-30T08:54:51;99617.22;;;22.31
80422;BMP280;69763;50.182;9.144;2023-07-30T08:57:17;99629.06;;;22.48
80422;BMP280;69763;50.182;9.144;2023-07-30T08:59:50;99639.03;;;22.66
80422;BMP280;69763;50.182;9.144;2023-07-30T09:02:28;99628.19;;;22.70
80422;BMP280;69763;50.182;9.144;2023-07-30T09:04:58;99633.50;;;22.80
80422;BMP280;69763;50.182;9.144;2023-07-30T09:07:24;99637.78;;;22.96
80422;BMP280;69763;50.182;9.144;2023-07-30T09:09:50;99623.81;;;23.35
80422;BMP280;69763;50.182;9.144;2023-07-30T09:12:16;99628.97;;;24.17
80422;BMP280;69763;50.182;9.144;2023-07-30T09:14:41;99625.88;;;25.25
80422;BMP280;69763;50.182;9.144;2023-07-30T09:17:06;99622.97;;;26.33
80422;BMP280;69763;50.182;9.144;2023-07-30T09:19:35;99622.38;;;27.21
80422;BMP280;69763;50.182;9.144;2023-07-30T09:22:04;99618.56;;;27.56
80422;BMP280;69763;50.182;9.144;2023-07-30T09:24:29;99629.63;;;27.77
80422;BMP280;69763;50.182;9.144;2023-07-30T09:26:55;99623.91;;;27.71
80422;BMP280;69763;50.182;9.144;2023-07-30T09:29:20;99625.66;;;27.61
80422;BMP280;69763;50.182;9.144;2023-07-30T09:31:46;99628.00;;;27.23
80422;BMP280;69763;50.182;9.144;2023-07-30T09:34:15;99627.47;;;26.42
80422;BMP280;69763;50.182;9.144;2023-07-30T09:36:44;99624.06;;;25.86
80422;BMP280;69763;50.182;9.144;2023-07-30T09:39:14;99626.31;;;25.72
80422;BMP280;69763;50.182;9.144;2023-07-30T09:41:41;99618.56;;;25.68
80422;BMP280;69763;50.182;9.144;2023-07-30T09:44:07;99611.81;;;25.93
80422;BMP280;69763;50.182;9.144;2023-07-30T09:46:32;99622.56;;;26.03
80422;BMP280;69763;50.182;9.144;2023-07-30T09:49:06;99619.75;;;26.40
80422;BMP280;69763;50.182;9.144;2023-07-30T09:51:32;99611.03;;;26.91
80422;BMP280;69763;50.182;9.144;2023-07-30T09:53:58;99613.59;;;27.52
80422;BMP280;69763;50.182;9.144;2023-07-30T09:56:24;99616.50;;;28.05
80422;BMP280;69763;50.182;9.144;2023-07-30T09:58:49;99608.97;;;27.84
80422;BMP280;69763;50.182;9.144;2023-07-30T10:01:15;99612.50;;;27.63
80422;BMP280;69763;50.182;9.144;2023-07-30T10:03:42;99604.59;;;27.30
80422;BMP280;69763;50.182;9.144;2023-07-30T10:06:07;99597.28;;;27.19
80422;BMP280;69763;50.182;9.144;2023-07-30T10:08:37;99592.84;;;26.88
80422;BMP280;69763;50.182;9.144;2023-07-30T10:11:07;99603.72;;;26.19
80422;BMP280;69763;50.182;9.144;2023-07-30T10:13:33;99591.03;;;25.57
80422;BMP280;69763;50.182;9.144;2023-07-30T10:15:59;99584.97;;;25.07
80422;BMP280;69763;50.182;9.144;2023-07-30T10:18:33;99599.13;;;24.65
80422;BMP280;69763;50.182;9.144;2023-07-30T10:20:58;99654.75;;;23.90
80422;BMP280;69763;50.182;9.144;2023-07-30T10:23:27;99681.88;;;21.89
80422;BMP280;69763;50.182;9.144;2023-07-30T10:25:52;99657.53;;;20.10
80422;BMP280;69763;50.182;9.144;2023-07-30T10:28:31;99678.03;;;19.03
80422;BMP280;69763;50.182;9.144;2023-07-30T10:30:58;99671.81;;;18.52
80422;BMP280;69763;50.182;9.144;2023-07-30T10:33:23;99697.09;;;18.31
80422;BMP280;69763;50.182;9.144;2023-07-30T10:35:54;99711.25;;;18.28
80422;BMP280;69763;50.182;9.144;2023-07-30T10:38:21;99720.63;;;18.25
80422;BMP280;69763;50.182;9.144;2023-07-30T10:41:00;99733.94;;;18.19
80422;BMP280;69763;50.182;9.144;2023-07-30T10:43:29;99749.22;;;18.12
80422;BMP280;69763;50.182;9.144;2023-07-30T10:45:54;99761.91;;;18.08
80422;BMP280;69763;50.182;9.144;2023-07-30T10:48:29;99768.44;;;18.12
80422;BMP280;69763;50.182;9.144;2023-07-30T10:50:54;99778.25;;;18.25
80422;BMP280;69763;50.182;9.144;2023-07-30T10:53:20;99781.47;;;18.40
80422;BMP280;69763;50.182;9.144;2023-07-30T10:55:45;99784.75;;;18.77
80422;BMP280;69763;50.182;9.144;2023-07-30T10:58:11;99787.66;;;19.29
80422;BMP280;69763;50.182;9.144;2023-07-30T11:00:38;99794.06;;;19.63
80422;BMP280;69763;50.182;9.144;2023-07-30T11:03:03;99793.06;;;19.79
80422;BMP280;69763;50.182;9.144;2023-07-30T11:05:29;99793.66;;;19.78
80422;BMP280;69763;50.182;9.144;2023-07-30T11:07:54;99795.34;;;19.71
80422;BMP280;69763;50.182;9.144;2023-07-30T11:10:19;99790.25;;;19.68
80422;BMP280;69763;50.182;9.144;2023-07-30T11:12:47;99800.69;;;19.69
80422;BMP280;69763;50.182;9.144;2023-07-30T11:15:12;99799.22;;;19.68
80422;BMP280;69763;50.182;9.144;2023-07-30T11:17:39;99814.47;;;19.60
80422;BMP280;69763;50.182;9.144;2023-07-30T11:20:05;99821.00;;;19.55
80422;BMP280;69763;50.182;9.144;2023-07-30T11:22:32;99828.06;;;19.58
80422;BMP280;69763;50.182;9.144;2023-07-30T11:24:57;99833.94;;;19.73
80422;BMP280;69763;50.182;9.144;2023-07-30T11:27:23;99834.72;;;19.95
80422;BMP280;69763;50.182;9.144;2023-07-30T11:29:54;99844.72;;;20.33
80422;BMP280;69763;50.182;9.144;2023-07-30T11:32:19;99835.94;;;20.67
80422;BMP280;69763;50.182;9.144;2023-07-30T11:34:46;99823.69;;;21.15
80422;BMP280;69763;50.182;9.144;2023-07-30T11:37:11;99817.59;;;21.74
80422;BMP280;69763;50.182;9.144;2023-07-30T11:39:37;99825.56;;;22.42
80422;BMP280;69763;50.182;9.144;2023-07-30T11:42:02;99818.91;;;22.72
80422;BMP280;69763;50.182;9.144;2023-07-30T11:44:33;99825.38;;;22.52
80422;BMP280;69763;50.182;9.144;2023-07-30T11:46:59;99823.56;;;22.31
80422;BMP280;69763;50.182;9.144;2023-07-30T11:49:25;99827.97;;;21.99
80422;BMP280;69763;50.182;9.144;2023-07-30T11:52:04;99823.38;;;22.15
80422;BMP280;69763;50.182;9.144;2023-07-30T11:54:29;99833.22;;;22.69
80422;BMP280;69763;50.182;9.144;2023-07-30T11:56:55;99830.22;;;23.29
80422;BMP280;69763;50.182;9.144;2023-07-30T11:59:20;99827.69;;;23.89
80422;BMP280;69763;50.182;9.144;2023-07-30T12:01:46;99826.09;;;24.14
80422;BMP280;69763;50.182;9.144;2023-07-30T12:04:11;99817.34;;;23.90
80422;BMP280;69763;50.182;9.144;2023-07-30T12:06:41;99816.16;;;23.79
80422;BMP280;69763;50.182;9.144;2023-07-30T12:09:12;99812.88;;;23.56
80422;BMP280;69763;50.182;9.144;2023-07-30T12:11:44;99818.28;;;23.54
80422;BMP280;69763;50.182;9.144;2023-07-30T12:14:09;99817.19;;;23.45
80422;BMP280;69763;50.182;9.144;2023-07-30T12:16:35;99823.81;;;23.40
80422;BMP280;69763;50.182;9.144;2023-07-30T12:19:00;99823.31;;;23.57
80422;BMP280;69763;50.182;9.144;2023-07-30T12:21:25;99828.03;;;23.55
80422;BMP280;69763;50.182;9.144;2023-07-30T12:23:51;99833.66;;;23.43
80422;BMP280;69763;50.182;9.144;2023-07-30T12:26:18;99824.81;;;23.06
80422;BMP280;69763;50.182;9.144;2023-07-30T12:28:43;99824.66;;;22.76
80422;BMP280;69763;50.182;9.144;2023-07-30T12:31:08;99828.75;;;22.75
80422;BMP280;69763;50.182;9.144;2023-07-30T12:33:34;99841.19;;;22.88
80422;BMP280;69763;50.182;9.144;2023-07-30T12:35:59;99840.03;;;22.79
80422;BMP280;69763;50.182;9.144;2023-07-30T12:38:25;99837.19;;;22.40
80422;BMP280;69763;50.182;9.144;2023-07-30T12:40:50;99843.66;;;22.08
80422;BMP280;69763;50.182;9.144;2023-07-30T12:43:17;99844.81;;;21.80
80422;BMP280;69763;50.182;9.144;2023-07-30T12:45:42;99846.38;;;21.71
80422;BMP280;69763;50.182;9.144;2023-07-30T12:48:08;99845.66;;;21.71
80422;BMP280;69763;50.182;9.144;2023-07-30T12:50:33;99849.88;;;21.60
80422;BMP280;69763;50.182;9.144;2023-07-30T12:52:58;99847.47;;;21.66
80422;BMP280;69763;50.182;9.144;2023-07-30T12:55:24;99860.06;;;21.69
80422;BMP280;69763;50.182;9.144;2023-07-30T12:57:49;99862.56;;;21.77
80422;BMP280;69763;50.182;9.144;2023-07-30T13:00:16;99861.00;;;21.74
80422;BMP280;69763;50.182;9.144;2023-07-30T13:02:42;99856.94;;;21.75
80422;BMP280;69763;50.182;9.144;2023-07-30T13:05:07;99869.03;;;21.58
80422;BMP280;69763;50.182;9.144;2023-07-30T13:07:33;99861.69;;;21.39
80422;BMP280;69763;50.182;9.144;2023-07-30T13:10:03;99868.19;;;21.44
80422;BMP280;69763;50.182;9.144;2023-07-30T13:12:28;99870.13;;;21.53
80422;BMP280;69763;50.182;9.144;2023-07-30T13:14:53;99865.69;;;21.83
80422;BMP280;69763;50.182;9.144;2023-07-30T13:17:20;99868.25;;;22.27
80422;BMP280;69763;50.182;9.144;2023-07-30T13:19:45;99866.59;;;22.98
80422;BMP280;69763;50.182;9.144;2023-07-30T13:22:11;99871.38;;;23.64
80422;BMP280;69763;50.182;9.144;2023-07-30T13:24:36;99865.97;;;23.79
80422;BMP280;69763;50.182;9.144;2023-07-30T13:27:02;99865.28;;;23.94
80422;BMP280;69763;50.182;9.144;2023-07-30T13:29:27;99854.19;;;24.22
80422;BMP280;69763;50.182;9.144;2023-07-30T13:31:53;99852.16;;;24.83
80422;BMP280;69763;50.182;9.144;2023-07-30T13:34:19;99837.63;;;25.31
80422;BMP280;69763;50.182;9.144;2023-07-30T13:36:45;99841.19;;;25.83
80422;BMP280;69763;50.182;9.144;2023-07-30T13:39:10;99841.91;;;26.18
80422;BMP280;69763;50.182;9.144;2023-07-30T13:41:36;99840.28;;;26.49
80422;BMP280;69763;50.182;9.144;2023-07-30T13:44:01;99835.88;;;26.61
80422;BMP280;69763;50.182;9.144;2023-07-30T13:46:26;99846.69;;;26.71
80422;BMP280;69763;50.182;9.144;2023-07-30T13:48:52;99846.94;;;26.59
80422;BMP280;69763;50.182;9.144;2023-07-30T13:51:19;99857.53;;;26.27
80422;BMP280;69763;50.182;9.144;2023-07-30T13:53:44;99848.09;;;25.99
80422;BMP280;69763;50.182;9.144;2023-07-30T13:56:09;99848.59;;;25.60
80422;BMP280;69763;50.182;9.144;2023-07-30T13:58:35;99850.91;;;25.50
80422;BMP280;69763;50.182;9.144;2023-07-30T14:01:00;99852.00;;;25.59